Aviation Digital Data Service (ADDS)

Output produced by METARs form (0904 UTC 19 November 2018)
found at http://www.aviationweather.gov/metar/data/
 
RJBB 190830Z 36013KT 9999 FEW015 BKN060 15/06 Q1016 NOSIG
TAF RJBB 190511Z 1906/2012 02012KT 9999 FEW025 SCT045